createdAt,value
2022-12-15T00:02:13.314Z,99346.28
2022-12-15T00:04:58.271Z,99360.94
2022-12-15T00:07:43.079Z,99360.94
2022-12-15T00:10:28.043Z,99372.13
2022-12-15T00:13:12.772Z,99345.50
2022-12-15T00:15:57.802Z,99376.47
2022-12-15T00:18:42.902Z,99379.03
2022-12-15T00:21:28.334Z,99381.63
2022-12-15T00:24:13.850Z,99379.03
2022-12-15T00:26:59.474Z,99370.41
2022-12-15T00:29:44.606Z,99366.13
2022-12-15T00:32:29.416Z,99335.16
2022-12-15T00:35:14.484Z,99350.66
2022-12-15T00:37:59.168Z,99376.44
2022-12-15T00:40:26.131Z,99376.44
2022-12-15T00:42:52.651Z,99389.34
2022-12-15T00:45:19.081Z,99381.59
2022-12-15T00:47:45.584Z,99397.09
2022-12-15T00:50:30.613Z,99404.84
2022-12-15T00:53:15.566Z,99410.88
2022-12-15T00:56:00.721Z,99410.00
2022-12-15T00:58:45.540Z,99421.19
2022-12-15T01:01:30.625Z,99416.88
2022-12-15T01:04:15.766Z,99413.44
2022-12-15T01:07:00.964Z,99424.63
2022-12-15T01:09:46.334Z,99421.19
2022-12-15T01:12:31.274Z,99419.47
2022-12-15T01:15:16.626Z,99422.91
2022-12-15T01:18:01.762Z,99432.38
2022-12-15T01:20:32.766Z,99437.53
2022-12-15T01:22:59.610Z,99429.81
2022-12-15T01:25:26.335Z,99401.41
2022-12-15T01:27:56.023Z,99440.97
2022-12-15T01:30:25.365Z,99437.53
2022-12-15T01:32:52.301Z,99438.41
2022-12-15T01:35:20.252Z,99435.81
2022-12-15T01:37:46.777Z,99417.72
2022-12-15T01:40:37.777Z,99467.63
2022-12-15T01:43:09.618Z,99461.63
2022-12-15T01:45:53.048Z,99464.22
2022-12-15T01:48:26.335Z,99459.03
2022-12-15T01:51:02.475Z,99455.56
2022-12-15T01:53:34.897Z,99459.88
2022-12-15T01:56:03.909Z,99464.19
2022-12-15T01:58:31.213Z,99471.03
2022-12-15T02:00:58.450Z,99471.91
2022-12-15T02:03:25.473Z,99474.53
2022-12-15T02:05:53.119Z,99470.22
2022-12-15T02:08:19.805Z,99435.78
2022-12-15T02:11:18.745Z,99461.63
2022-12-15T02:13:59.829Z,99469.34
2022-12-15T02:16:26.442Z,99471.06
2022-12-15T02:19:04.754Z,99479.69
2022-12-15T02:21:50.110Z,99488.28
2022-12-15T02:24:30.519Z,99502.91
2022-12-15T02:27:13.595Z,99496.00
2022-12-15T02:30:17.998Z,99496.88
2022-12-15T02:32:57.049Z,99466.69
2022-12-15T02:35:40.930Z,99465.00
2022-12-15T02:38:09.451Z,99464.97
2022-12-15T02:40:37.206Z,99499.44
2022-12-15T02:43:06.138Z,99497.72
2022-12-15T02:46:17.030Z,99489.97
2022-12-15T02:48:51.425Z,99502.00
2022-12-15T02:51:20.951Z,99497.72
2022-12-15T02:54:14.567Z,99499.41
2022-12-15T02:57:06.172Z,99503.69
2022-12-15T03:00:10.735Z,99511.44
2022-12-15T03:02:41.914Z,99506.28
2022-12-15T03:05:09.522Z,99503.69
2022-12-15T03:07:36.063Z,99509.69
2022-12-15T03:10:07.192Z,99513.94
2022-12-15T03:12:33.755Z,99539.81
2022-12-15T03:15:00.202Z,99531.22
2022-12-15T03:17:26.789Z,99508.81
2022-12-15T03:19:53.310Z,99529.47
2022-12-15T03:22:20.140Z,99548.38
2022-12-15T03:24:46.705Z,99505.31
2022-12-15T03:27:13.239Z,99535.44
2022-12-15T03:29:40.113Z,99538.88
2022-12-15T03:32:06.903Z,99533.69
2022-12-15T03:34:33.411Z,99539.75
2022-12-15T03:36:59.912Z,99507.84
2022-12-15T03:39:26.616Z,99538.00
2022-12-15T03:41:53.114Z,99548.31
2022-12-15T03:44:19.621Z,99554.34
2022-12-15T03:46:46.139Z,99553.47
2022-12-15T03:49:12.638Z,99556.06
2022-12-15T03:51:39.130Z,99556.88
2022-12-15T03:54:06.103Z,99564.56
2022-12-15T03:56:34.788Z,99558.56
2022-12-15T03:59:02.305Z,99537.03
2022-12-15T04:01:34.287Z,99554.28
2022-12-15T04:04:02.343Z,99561.13
2022-12-15T04:06:30.044Z,99560.25
2022-12-15T04:08:56.654Z,99561.09
2022-12-15T04:11:23.242Z,99565.38
2022-12-15T04:13:50.949Z,99569.69
2022-12-15T04:16:20.167Z,99576.56
2022-12-15T04:19:07.570Z,99572.25
2022-12-15T04:21:34.115Z,99561.97
2022-12-15T04:24:19.046Z,99570.56
2022-12-15T04:27:03.803Z,99539.56
2022-12-15T04:29:48.754Z,99535.22
2022-12-15T04:32:34.179Z,99575.75
2022-12-15T04:35:19.512Z,99542.97
2022-12-15T04:38:04.872Z,99572.28
2022-12-15T04:40:50.110Z,99559.31
2022-12-15T04:43:35.188Z,99586.03
2022-12-15T04:46:20.071Z,99592.94
2022-12-15T04:49:05.302Z,99601.53
2022-12-15T04:51:52.055Z,99599.78
2022-12-15T04:54:36.943Z,99601.47
2022-12-15T04:57:22.275Z,99604.84
2022-12-15T05:00:07.202Z,99591.06
2022-12-15T05:02:52.141Z,99595.31
2022-12-15T05:05:37.283Z,99578.00
2022-12-15T05:08:22.805Z,99605.56
2022-12-15T05:11:07.647Z,99614.19
2022-12-15T05:13:52.483Z,99612.53
2022-12-15T05:16:37.382Z,99575.50
2022-12-15T05:19:22.374Z,99580.75
2022-12-15T05:22:07.239Z,99606.66
2022-12-15T05:24:52.012Z,99605.81
2022-12-15T05:27:37.107Z,99609.28
2022-12-15T05:30:22.874Z,99617.97
2022-12-15T05:32:49.949Z,99610.25
2022-12-15T05:35:16.527Z,99611.16
2022-12-15T05:37:43.105Z,99607.72
2022-12-15T05:40:10.179Z,99624.94
2022-12-15T05:42:36.707Z,99616.38
2022-12-15T05:45:05.510Z,99619.84
2022-12-15T05:47:32.024Z,99622.47
2022-12-15T05:49:58.783Z,99631.13
2022-12-15T05:52:25.684Z,99604.44
2022-12-15T05:54:52.436Z,99621.72
2022-12-15T05:57:21.081Z,99625.16
2022-12-15T05:59:47.610Z,99620.91
2022-12-15T06:02:14.136Z,99633.84
2022-12-15T06:04:41.000Z,99633.84
2022-12-15T06:07:07.548Z,99640.72
2022-12-15T06:09:34.047Z,99642.47
2022-12-15T06:12:00.567Z,99640.75
2022-12-15T06:14:27.009Z,99635.59
2022-12-15T06:16:53.629Z,99633.03
2022-12-15T06:19:21.020Z,99621.78
2022-12-15T06:21:47.737Z,99651.09
2022-12-15T06:24:14.340Z,99656.28
2022-12-15T06:26:41.063Z,99660.59
2022-12-15T06:29:10.022Z,99655.41
2022-12-15T06:31:37.567Z,99669.22
2022-12-15T06:34:06.158Z,99651.09
2022-12-15T06:36:32.677Z,99656.28
2022-12-15T06:39:01.503Z,99665.75
2022-12-15T06:41:32.640Z,99670.06
2022-12-15T06:44:00.362Z,99671.78
2022-12-15T06:46:29.252Z,99672.63
2022-12-15T06:48:56.163Z,99667.47
2022-12-15T06:51:23.126Z,99663.16
2022-12-15T06:53:50.819Z,99670.06
2022-12-15T06:56:23.326Z,99683.00
2022-12-15T06:58:55.051Z,99681.25
2022-12-15T07:01:23.653Z,99677.81
2022-12-15T07:03:51.223Z,99674.38
2022-12-15T07:06:18.319Z,99688.19
2022-12-15T07:08:52.224Z,99688.19
2022-12-15T07:11:20.795Z,99688.19
2022-12-15T07:13:54.109Z,99683.88
2022-12-15T07:16:22.799Z,99690.75
2022-12-15T07:18:49.937Z,99667.50
2022-12-15T07:21:17.207Z,99710.59
2022-12-15T07:24:00.518Z,99708.88
2022-12-15T07:26:27.968Z,99706.25
2022-12-15T07:28:54.871Z,99701.97
2022-12-15T07:31:22.624Z,99703.69
2022-12-15T07:33:52.599Z,99714.91
2022-12-15T07:36:19.458Z,99690.78
2022-12-15T07:38:50.299Z,99705.44
2022-12-15T07:41:18.096Z,99695.94
2022-12-15T07:43:45.494Z,99692.50
2022-12-15T07:46:12.139Z,99688.19
2022-12-15T07:48:38.687Z,99697.66
2022-12-15T07:51:10.842Z,99700.22
2022-12-15T07:53:40.182Z,99711.44
2022-12-15T07:56:09.660Z,99673.50
2022-12-15T07:58:37.834Z,99686.34
2022-12-15T08:01:06.905Z,99701.91
2022-12-15T08:03:36.003Z,99732.13
2022-12-15T08:06:06.215Z,99726.97
2022-12-15T08:08:35.739Z,99737.31
2022-12-15T08:11:08.518Z,99713.19
2022-12-15T08:16:22.803Z,99739.88
2022-12-15T08:18:49.415Z,99735.59
2022-12-15T08:21:16.194Z,99729.56
2022-12-15T08:23:43.070Z,99737.31
2022-12-15T08:26:15.165Z,99720.94
2022-12-15T08:28:42.927Z,99736.44
2022-12-15T08:31:12.380Z,99734.72
2022-12-15T08:33:39.811Z,99718.34
2022-12-15T08:36:09.261Z,99738.19
2022-12-15T08:38:38.781Z,99737.31
2022-12-15T08:41:13.128Z,99722.66
2022-12-15T08:43:47.508Z,99699.38
2022-12-15T08:46:20.181Z,99733.00
2022-12-15T08:48:49.910Z,99741.63
2022-12-15T08:51:17.507Z,99747.66
2022-12-15T08:53:44.329Z,99756.28
2022-12-15T08:56:15.752Z,99732.13
2022-12-15T08:58:42.987Z,99734.72
2022-12-15T09:01:22.473Z,99738.19
2022-12-15T09:03:51.635Z,99726.97
2022-12-15T09:06:20.784Z,99765.78
2022-12-15T09:08:50.150Z,99768.38
2022-12-15T09:11:17.703Z,99770.94
2022-12-15T09:13:44.619Z,99769.22
2022-12-15T09:16:14.784Z,99764.88
2022-12-15T09:18:46.621Z,99772.66
2022-12-15T09:21:14.198Z,99782.97
2022-12-15T09:23:40.817Z,99770.94
2022-12-15T09:26:14.524Z,99779.56
2022-12-15T09:28:43.188Z,99758.84
2022-12-15T09:31:17.980Z,99792.47
2022-12-15T09:33:44.896Z,99789.88
2022-12-15T09:36:13.179Z,99778.69
2022-12-15T09:38:41.994Z,99808.03
2022-12-15T09:41:10.054Z,99806.28
2022-12-15T09:43:46.712Z,99806.28
2022-12-15T09:46:21.362Z,99813.19
2022-12-15T09:48:51.279Z,99814.06
2022-12-15T09:51:19.297Z,99806.28
2022-12-15T09:53:55.571Z,99807.13
2022-12-15T09:56:32.673Z,99808.84
2022-12-15T09:59:38.101Z,99812.28
2022-12-15T10:02:38.792Z,99800.19
2022-12-15T10:05:16.456Z,99805.41
2022-12-15T10:07:46.341Z,99803.69
2022-12-15T10:10:19.677Z,99795.91
2022-12-15T10:12:57.657Z,99804.53
2022-12-15T10:15:33.646Z,99814.91
2022-12-15T10:18:12.944Z,99810.63
2022-12-15T10:20:39.848Z,99791.66
2022-12-15T10:23:13.182Z,99815.81
2022-12-15T10:25:43.324Z,99810.63
2022-12-15T10:28:15.927Z,99813.19
2022-12-15T10:31:25.319Z,99822.69
2022-12-15T10:34:01.916Z,99826.13
2022-12-15T10:36:29.447Z,99810.59
2022-12-15T10:38:55.921Z,99803.69
2022-12-15T10:41:25.905Z,99808.00
2022-12-15T10:43:54.099Z,99794.19
2022-12-15T10:46:24.344Z,99801.09
2022-12-15T10:48:54.629Z,99800.22
2022-12-15T10:51:32.726Z,99796.78
2022-12-15T10:54:01.937Z,99804.53
2022-12-15T10:56:33.560Z,99809.72
2022-12-15T10:59:22.310Z,99795.94
2022-12-15T11:01:49.394Z,99808.88
2022-12-15T11:04:30.044Z,99798.50
2022-12-15T11:07:01.957Z,99779.50
2022-12-15T11:09:37.261Z,99775.19
2022-12-15T11:12:37.227Z,99779.44
2022-12-15T11:15:23.810Z,99781.19
2022-12-15T11:18:08.707Z,99743.22
2022-12-15T11:20:40.167Z,99763.84
2022-12-15T11:23:19.323Z,99750.03
2022-12-15T11:25:55.462Z,99768.13
2022-12-15T11:28:28.633Z,99760.31
2022-12-15T11:31:13.043Z,99750.00
2022-12-15T11:33:40.006Z,99765.50
2022-12-15T11:36:37.393Z,99764.63
2022-12-15T11:39:16.902Z,99758.59
2022-12-15T11:42:08.054Z,99718.94
2022-12-15T11:44:48.998Z,99742.19
2022-12-15T11:47:40.847Z,99737.84
2022-12-15T11:50:26.403Z,99731.81
2022-12-15T11:53:30.764Z,99732.66
2022-12-15T11:56:24.714Z,99725.69
2022-12-15T11:59:24.471Z,99719.63
2022-12-15T12:02:10.085Z,99719.59
2022-12-15T12:04:50.879Z,99731.72
2022-12-15T12:07:27.225Z,99699.84
2022-12-15T12:10:05.998Z,99731.78
2022-12-15T12:12:43.430Z,99725.81
2022-12-15T12:15:12.802Z,99720.63
2022-12-15T12:17:50.775Z,99709.41
2022-12-15T12:20:24.964Z,99709.47
2022-12-15T12:23:02.364Z,99683.66
2022-12-15T12:25:33.661Z,99692.28
2022-12-15T12:28:14.241Z,99718.13
2022-12-15T12:33:49.287Z,99714.50
2022-12-15T12:36:16.775Z,99704.94
2022-12-15T12:38:56.615Z,99692.94
2022-12-15T12:41:35.713Z,99684.34
2022-12-15T12:44:32.412Z,99674.00
2022-12-15T12:47:06.399Z,99665.44
2022-12-15T12:49:40.862Z,99653.34
2022-12-15T12:52:22.673Z,99649.88
2022-12-15T12:54:57.342Z,99614.56
2022-12-15T12:57:33.226Z,99643.84
2022-12-15T13:00:06.117Z,99646.44
2022-12-15T13:02:35.296Z,99643.84
2022-12-15T13:05:22.645Z,99622.28
2022-12-15T13:08:16.916Z,99614.50
2022-12-15T13:10:45.967Z,99626.59
2022-12-15T13:13:29.616Z,99628.38
2022-12-15T13:16:02.425Z,99608.53
2022-12-15T13:18:29.708Z,99610.31
2022-12-15T13:20:57.977Z,99606.88
2022-12-15T13:23:25.469Z,99610.34
2022-12-15T13:25:59.130Z,99622.44
2022-12-15T13:28:40.570Z,99628.47
2022-12-15T13:31:16.740Z,99621.56
2022-12-15T13:33:50.927Z,99577.66
2022-12-15T13:36:42.333Z,99616.38
2022-12-15T13:39:14.875Z,99618.09
2022-12-15T13:44:55.388Z,99588.75
2022-12-15T13:47:27.319Z,99598.22
2022-12-15T13:50:14.703Z,99578.47
2022-12-15T13:53:18.752Z,99586.22
2022-12-15T13:55:52.612Z,99575.88
2022-12-15T13:58:21.587Z,99579.34
2022-12-15T14:00:56.553Z,99575.88
2022-12-15T14:03:24.147Z,99584.50
2022-12-15T14:05:54.508Z,99578.53
2022-12-15T14:08:23.334Z,99582.84
2022-12-15T14:10:58.252Z,99580.25
2022-12-15T14:13:32.193Z,99559.63
2022-12-15T14:16:04.948Z,99579.44
2022-12-15T14:18:34.625Z,99569.97
2022-12-15T14:21:05.171Z,99572.53
2022-12-15T14:24:10.938Z,99569.09
2022-12-15T14:26:31.875Z,99550.13
2022-12-15T14:29:05.046Z,99569.09
2022-12-15T14:31:32.106Z,99594.06
2022-12-15T14:34:25.105Z,99592.34
2022-12-15T14:36:53.029Z,99583.78
2022-12-15T14:39:26.190Z,99591.53
2022-12-15T14:41:54.667Z,99599.28
2022-12-15T14:47:26.918Z,99623.44
2022-12-15T14:49:55.856Z,99597.59
2022-12-15T14:52:29.289Z,99633.75
2022-12-15T14:55:02.026Z,99640.66
2022-12-15T14:57:41.162Z,99641.53
2022-12-15T15:00:30.749Z,99632.06
2022-12-15T15:03:07.112Z,99714.59
2022-12-15T15:03:14.461Z,99623.41
2022-12-15T15:05:59.954Z,99644.19
2022-12-15T15:08:28.986Z,99635.56
2022-12-15T15:10:59.414Z,99630.38
2022-12-15T15:13:39.572Z,99633.84
2022-12-15T15:16:07.735Z,99631.25
2022-12-15T15:18:34.751Z,99626.06
2022-12-15T15:21:15.299Z,99632.97
2022-12-15T15:23:41.886Z,99633.84
2022-12-15T15:26:15.154Z,99576.97
2022-12-15T15:28:43.524Z,99623.47
2022-12-15T15:31:25.444Z,99616.59
2022-12-15T15:33:52.809Z,99597.69
2022-12-15T15:36:19.341Z,99622.66
2022-12-15T15:38:46.827Z,99627.81
2022-12-15T15:41:19.483Z,99641.63
2022-12-15T15:43:47.235Z,99607.16
2022-12-15T15:46:20.855Z,99636.47
2022-12-15T15:49:09.933Z,99640.78
2022-12-15T15:51:37.740Z,99614.06
2022-12-15T15:54:08.227Z,99614.94
2022-12-15T15:56:35.027Z,99607.16
2022-12-15T15:59:13.700Z,99634.72
2022-12-15T16:01:40.873Z,99642.50
2022-12-15T16:04:07.507Z,99612.34
2022-12-15T16:06:34.783Z,99601.13
2022-12-15T16:09:02.724Z,99632.16
2022-12-15T16:11:32.585Z,99607.16
2022-12-15T16:13:59.195Z,99620.06
2022-12-15T16:16:33.009Z,99625.25
2022-12-15T16:18:59.957Z,99632.16
2022-12-15T16:21:28.164Z,99618.38
2022-12-15T16:23:56.110Z,99627.84
2022-12-15T16:26:32.615Z,99622.69
2022-12-15T16:28:59.615Z,99614.06
2022-12-15T16:31:37.327Z,99616.66
2022-12-15T16:34:07.639Z,99609.75
2022-12-15T16:36:35.098Z,99586.50
2022-12-15T16:39:01.955Z,99602.88
2022-12-15T16:41:28.470Z,99598.56
2022-12-15T16:43:55.042Z,99570.13
2022-12-15T16:46:21.910Z,99592.50
2022-12-15T16:48:48.832Z,99595.97
2022-12-15T16:51:24.297Z,99590.78
2022-12-15T16:53:50.796Z,99592.50
2022-12-15T16:56:17.297Z,99599.41
2022-12-15T16:58:48.502Z,99564.09
2022-12-15T17:01:16.111Z,99602.84
2022-12-15T17:03:43.113Z,99598.53
2022-12-15T17:06:15.118Z,99591.66
2022-12-15T17:08:55.093Z,99598.53
2022-12-15T17:11:24.382Z,99601.13
2022-12-15T17:13:55.820Z,99606.28
2022-12-15T17:16:24.085Z,99603.72
2022-12-15T17:18:51.638Z,99620.94
2022-12-15T17:21:54.072Z,99628.69
2022-12-15T17:24:22.317Z,99624.41
2022-12-15T17:26:49.651Z,99620.94
2022-12-15T17:29:21.810Z,99624.41
2022-12-15T17:31:48.530Z,99613.19
2022-12-15T17:34:30.504Z,99612.31
2022-12-15T17:36:59.327Z,99611.44
2022-12-15T17:39:26.755Z,99612.31
2022-12-15T17:42:02.645Z,99614.91
2022-12-15T17:44:34.314Z,99617.50
2022-12-15T17:47:02.655Z,99630.41
2022-12-15T17:49:35.060Z,99583.03
2022-12-15T17:52:05.280Z,99607.16
2022-12-15T17:54:32.245Z,99607.16
2022-12-15T17:56:59.890Z,99602.84
2022-12-15T17:59:26.443Z,99603.72
2022-12-15T18:01:56.927Z,99599.38
2022-12-15T18:04:23.828Z,99601.13
2022-12-15T18:06:51.993Z,99592.50
2022-12-15T18:09:26.929Z,99591.63
2022-12-15T18:11:53.638Z,99594.22
2022-12-15T18:14:22.882Z,99601.13
2022-12-15T18:16:49.616Z,99578.72
2022-12-15T18:19:16.170Z,99599.38
2022-12-15T18:21:42.893Z,99594.22
2022-12-15T18:24:15.162Z,99584.75
2022-12-15T18:26:41.728Z,99583.91
2022-12-15T18:29:19.889Z,99584.75
2022-12-15T18:31:48.554Z,99587.34
2022-12-15T18:34:21.244Z,99574.44
2022-12-15T18:36:48.058Z,99579.59
2022-12-15T18:39:23.188Z,99585.63
2022-12-15T18:41:51.490Z,99547.72
2022-12-15T18:44:26.712Z,99573.59
2022-12-15T18:46:55.118Z,99591.66
2022-12-15T18:49:23.063Z,99584.75
2022-12-15T18:51:49.827Z,99584.78
2022-12-15T18:54:21.193Z,99585.63
2022-12-15T18:56:48.315Z,99581.31
2022-12-15T18:59:17.132Z,99580.47
2022-12-15T19:01:47.531Z,99557.22
2022-12-15T19:04:14.767Z,99570.09
2022-12-15T19:06:41.802Z,99585.63
2022-12-15T19:09:15.595Z,99580.47
2022-12-15T19:12:03.656Z,99570.13
2022-12-15T19:14:42.579Z,99578.72
2022-12-15T19:17:30.551Z,99549.44
2022-12-15T19:20:15.863Z,99572.72
2022-12-15T19:22:44.199Z,99565.84
2022-12-15T19:25:26.509Z,99570.13
2022-12-15T19:28:00.455Z,99561.50
2022-12-15T19:30:41.767Z,99558.06
2022-12-15T19:33:08.877Z,99563.25
2022-12-15T19:35:36.931Z,99523.63
2022-12-15T19:38:04.838Z,99554.63
2022-12-15T19:40:34.800Z,99547.72
2022-12-15T19:43:02.724Z,99558.03
2022-12-15T19:45:31.206Z,99546.88
2022-12-15T19:47:58.216Z,99558.06
2022-12-15T19:50:28.083Z,99545.13
2022-12-15T19:52:58.622Z,99545.16
2022-12-15T19:55:32.659Z,99495.19
2022-12-15T19:58:00.116Z,99521.00
2022-12-15T20:00:27.304Z,99545.13
2022-12-15T20:02:55.226Z,99531.34
2022-12-15T20:05:23.667Z,99533.09
2022-12-15T20:07:52.324Z,99490.03
2022-12-15T20:10:31.316Z,99521.88
2022-12-15T20:12:58.689Z,99481.44
2022-12-15T20:15:28.359Z,99510.69
2022-12-15T20:17:57.260Z,99496.94
2022-12-15T20:20:26.824Z,99508.09
2022-12-15T20:22:58.821Z,99498.66
2022-12-15T20:25:28.010Z,99494.34
2022-12-15T20:27:54.731Z,99490.91
2022-12-15T20:30:32.527Z,99492.59
2022-12-15T20:33:00.394Z,99488.31
2022-12-15T20:35:27.004Z,99492.59
2022-12-15T20:37:53.559Z,99495.19
2022-12-15T20:40:24.026Z,99499.50
2022-12-15T20:42:51.559Z,99500.34
2022-12-15T20:45:21.181Z,99466.78
2022-12-15T20:47:49.904Z,99494.31
2022-12-15T20:50:36.342Z,99504.66
2022-12-15T20:53:04.031Z,99500.34
2022-12-15T20:55:32.108Z,99501.19
2022-12-15T20:57:58.596Z,99499.47
2022-12-15T21:00:25.131Z,99475.34
2022-12-15T21:02:54.900Z,99500.31
2022-12-15T21:05:24.836Z,99508.06
2022-12-15T21:07:52.519Z,99508.06
2022-12-15T21:10:20.867Z,99510.66
2022-12-15T21:12:49.371Z,99524.44
2022-12-15T21:15:21.750Z,99514.94
2022-12-15T21:18:11.291Z,99512.34
2022-12-15T21:20:41.579Z,99504.59
2022-12-15T21:23:28.924Z,99503.72
2022-12-15T21:25:56.797Z,99504.59
2022-12-15T21:28:24.400Z,99508.88
2022-12-15T21:30:51.673Z,99512.34
2022-12-15T21:33:18.330Z,99506.31
2022-12-15T21:35:47.409Z,99514.06
2022-12-15T21:38:36.221Z,99524.41
2022-12-15T21:41:06.091Z,99529.56
2022-12-15T21:43:35.378Z,99506.34
2022-12-15T21:46:12.259Z,99533.03
2022-12-15T21:48:57.210Z,99533.88
2022-12-15T21:51:25.098Z,99529.56
2022-12-15T21:53:52.079Z,99531.28
2022-12-15T21:56:20.984Z,99532.16
2022-12-15T21:58:52.603Z,99529.56
2022-12-15T22:01:29.553Z,99511.47
2022-12-15T22:03:59.540Z,99527.84
2022-12-15T22:06:28.890Z,99545.06
2022-12-15T22:09:00.173Z,99547.63
2022-12-15T22:11:29.483Z,99527.84
2022-12-15T22:13:57.904Z,99540.75
2022-12-15T22:16:25.112Z,99527.03
2022-12-15T22:18:54.759Z,99558.84
2022-12-15T22:21:22.412Z,99548.50
2022-12-15T22:23:49.017Z,99545.06
2022-12-15T22:26:24.625Z,99543.31
2022-12-15T22:28:51.709Z,99549.38
2022-12-15T22:31:18.464Z,99546.78
2022-12-15T22:33:45.117Z,99552.81
2022-12-15T22:36:11.897Z,99556.28
2022-12-15T22:38:38.510Z,99557.16
2022-12-15T22:41:06.749Z,99552.84
2022-12-15T22:43:39.323Z,99552.84
2022-12-15T22:46:09.381Z,99562.31
2022-12-15T22:48:38.765Z,99539.91
2022-12-15T22:51:06.209Z,99555.44
2022-12-15T22:53:35.195Z,99558.88
2022-12-15T22:56:24.327Z,99558.03
2022-12-15T22:58:55.958Z,99541.69
2022-12-15T23:01:22.648Z,99553.75
2022-12-15T23:03:53.092Z,99533.06
2022-12-15T23:06:26.107Z,99530.47
2022-12-15T23:08:55.839Z,99539.09
2022-12-15T23:11:39.018Z,99536.50
2022-12-15T23:14:11.880Z,99539.09
2022-12-15T23:16:39.397Z,99535.63
2022-12-15T23:19:23.819Z,99538.22
2022-12-15T23:21:51.576Z,99529.59
2022-12-15T23:24:18.420Z,99539.94
2022-12-15T23:26:44.925Z,99545.97
2022-12-15T23:29:11.486Z,99537.38
2022-12-15T23:31:38.122Z,99536.53
2022-12-15T23:34:05.521Z,99543.38
2022-12-15T23:36:32.100Z,99541.66
2022-12-15T23:38:58.636Z,99539.13
2022-12-15T23:41:25.168Z,99532.22
2022-12-15T23:43:51.742Z,99541.66
2022-12-15T23:46:18.823Z,99544.25
2022-12-15T23:48:46.037Z,99539.94
2022-12-15T23:51:18.088Z,99505.53
2022-12-15T23:53:46.127Z,99530.47
2022-12-15T23:56:22.194Z,99534.78
2022-12-15T23:58:59.320Z,99527.88
